Time;durP1;ratioP1;P1;durP2;ratioP2;P2;SDS_P1;SDS_P2;PMS_P1;PMS_P2;Temp;Humidity;BMP_temperature;BMP_pressure;BME280_temperature;BME280_humidity;BME280_pressure;Samples;Min_cycle;Max_cycle;Signal;HPM_P1;HPM_P2
2021/06/21 00:01:46;;;;;;;7.63;6.82;;;16.80;69.40;;;;;;5085424;28;20531;-72
2021/06/21 00:04:12;;;;;;;6.65;6.05;;;16.70;69.90;;;;;;5067160;28;20032;-72
2021/06/21 00:06:38;;;;;;;6.80;6.10;;;16.70;69.30;;;;;;5084984;28;20101;-72
2021/06/21 00:09:05;;;;;;;7.05;6.30;;;16.70;69.30;;;;;;5084369;28;20390;-72
2021/06/21 00:11:31;;;;;;;6.85;6.13;;;16.70;69.30;;;;;;5083941;28;20046;-72
2021/06/21 00:13:58;;;;;;;7.32;6.32;;;16.70;69.30;;;;;;5085204;28;20027;-73
2021/06/21 00:16:25;;;;;;;8.65;6.57;;;16.60;69.10;;;;;;5088016;28;20363;-73
2021/06/21 00:18:51;;;;;;;7.07;6.38;;;16.60;69.20;;;;;;5088603;28;20032;-72
2021/06/21 00:21:17;;;;;;;6.45;5.82;;;16.60;69.20;;;;;;5088672;28;20024;-73
2021/06/21 00:23:43;;;;;;;6.32;5.72;;;16.60;69.20;;;;;;5087753;28;20028;-72
2021/06/21 00:26:09;;;;;;;7.30;6.65;;;16.60;69.20;;;;;;5087636;28;20539;-71
2021/06/21 00:28:35;;;;;;;6.95;6.15;;;16.60;69.30;;;;;;5087966;28;20039;-73
2021/06/21 00:31:02;;;;;;;6.68;6.03;;;16.60;69.30;;;;;;5089173;28;20032;-73
2021/06/21 00:33:28;;;;;;;6.32;5.82;;;16.50;69.10;;;;;;5087081;28;20055;-72
2021/06/21 00:35:54;;;;;;;6.97;6.38;;;16.50;69.10;;;;;;5088680;28;20107;-73
2021/06/21 00:38:20;;;;;;;6.97;6.38;;;16.50;69.10;;;;;;5087631;28;20067;-70
2021/06/21 00:40:46;;;;;;;7.20;6.60;;;16.50;69.20;;;;;;5088107;28;20077;-73
2021/06/21 00:43:12;;;;;;;6.93;6.30;;;16.50;69.20;;;;;;5088742;28;20031;-72
2021/06/21 00:45:38;;;;;;;6.57;5.97;;;16.40;69.00;;;;;;5088844;28;20043;-72
2021/06/21 00:48:04;;;;;;;6.55;5.95;;;16.40;69.10;;;;;;5091369;28;20082;-73
2021/06/21 00:50:31;;;;;;;6.55;5.80;;;16.40;69.10;;;;;;5073648;28;20052;-72
2021/06/21 00:53:02;;;;;;;7.00;6.40;;;16.40;69.10;;;;;;5086192;28;20025;-73
2021/06/21 00:55:30;;;;;;;7.10;6.13;;;16.40;69.20;;;;;;5070594;28;20078;-71
2021/06/21 00:57:56;;;;;;;6.93;6.20;;;16.40;69.20;;;;;;5087333;28;20543;-73
2021/06/21 01:00:24;;;;;;;6.10;5.53;;;16.30;69.00;;;;;;5088378;28;20047;-72
2021/06/21 01:02:51;;;;;;;11.90;5.93;;;16.30;69.00;;;;;;5088014;28;20272;-72
2021/06/21 01:05:20;;;;;;;6.45;5.88;;;16.30;69.00;;;;;;5086987;28;20024;-74
2021/06/21 01:07:46;;;;;;;5.90;5.43;;;16.30;69.10;;;;;;5088248;28;20120;-73
2021/06/21 01:10:14;;;;;;;5.90;5.35;;;16.30;69.10;;;;;;5088040;28;20115;-72
2021/06/21 01:12:47;;;;;;;5.82;5.10;;;16.30;69.10;;;;;;5088340;28;20028;-76
2021/06/21 01:15:41;;;;;;;6.47;5.53;;;16.30;69.20;;;;;;5088238;28;20039;-74
2021/06/21 01:18:15;;;;;;;5.75;5.20;;;16.30;69.20;;;;;;5086338;28;20491;-74
2021/06/21 01:21:12;;;;;;;6.78;6.07;;;16.20;69.00;;;;;;5086716;28;20021;-77
2021/06/21 01:23:53;;;;;;;5.80;5.22;;;16.20;69.00;;;;;;5087532;28;20047;-73
2021/06/21 01:26:32;;;;;;;5.95;5.45;;;16.20;69.00;;;;;;5087443;28;20267;-76
2021/06/21 01:29:14;;;;;;;6.18;5.45;;;16.20;69.00;;;;;;5069529;28;20052;-73
2021/06/21 01:31:49;;;;;;;5.53;5.03;;;16.20;69.00;;;;;;5076383;22;20117;-77
2021/06/21 01:34:17;;;;;;;5.95;5.43;;;16.20;69.00;;;;;;5047783;28;20075;-77
2021/06/21 01:36:49;;;;;;;6.45;5.68;;;16.10;68.90;;;;;;5048377;28;20036;-76
2021/06/21 01:39:16;;;;;;;5.95;5.32;;;16.10;68.90;;;;;;5037635;28;20068;-76
2021/06/21 01:41:45;;;;;;;5.97;5.45;;;16.10;68.90;;;;;;5027994;28;20032;-76
2021/06/21 01:44:14;;;;;;;5.63;5.13;;;16.10;69.00;;;;;;5029378;28;20044;-77
2021/06/21 01:46:40;;;;;;;5.93;5.28;;;16.10;69.00;;;;;;5035825;28;20033;-76
2021/06/21 01:49:12;;;;;;;6.05;5.55;;;16.10;69.00;;;;;;5044346;28;20520;-77
2021/06/21 01:51:41;;;;;;;5.40;4.90;;;16.00;68.90;;;;;;5052098;28;20480;-77
2021/06/21 01:54:08;;;;;;;6.60;6.00;;;16.00;68.90;;;;;;5052375;28;20071;-74
2021/06/21 01:56:44;;;;;;;5.55;4.90;;;16.00;68.90;;;;;;5052115;28;20306;-75
2021/06/21 01:59:12;;;;;;;5.75;5.28;;;16.00;69.00;;;;;;5051803;28;20119;-76
2021/06/21 02:01:38;;;;;;;7.05;6.22;;;16.00;68.90;;;;;;5050832;28;20472;-77
2021/06/21 02:04:07;;;;;;;5.88;5.43;;;16.00;69.00;;;;;;5050958;28;20025;-77
2021/06/21 02:06:35;;;;;;;5.78;5.18;;;16.00;69.00;;;;;;5051310;28;20037;-76
2021/06/21 02:09:05;;;;;;;6.03;5.47;;;16.00;69.00;;;;;;5050869;28;20488;-77
2021/06/21 02:11:31;;;;;;;6.28;5.40;;;16.00;69.00;;;;;;5051811;28;20032;-78
2021/06/21 02:13:58;;;;;;;5.97;5.40;;;15.90;68.80;;;;;;5068932;28;20029;-76
2021/06/21 02:16:26;;;;;;;5.40;4.90;;;16.00;69.00;;;;;;5053927;28;20024;-78
2021/06/21 02:18:53;;;;;;;5.90;4.97;;;15.90;68.80;;;;;;5070144;28;20089;-76
2021/06/21 02:21:20;;;;;;;5.50;5.00;;;15.90;68.80;;;;;;5070330;28;20020;-78
2021/06/21 02:23:51;;;;;;;6.18;5.45;;;15.90;68.90;;;;;;5071417;28;20054;-78
2021/06/21 02:26:23;;;;;;;5.90;5.30;;;15.90;68.90;;;;;;5053391;28;20579;-77
2021/06/21 02:28:53;;;;;;;5.65;5.05;;;15.90;68.90;;;;;;5070187;28;20519;-77
2021/06/21 02:31:20;;;;;;;5.28;4.78;;;15.90;68.90;;;;;;5069892;28;20048;-79
2021/06/21 02:33:46;;;;;;;5.72;5.07;;;15.90;68.90;;;;;;5070143;28;20488;-79
2021/06/21 02:36:12;;;;;;;4.95;4.45;;;15.90;68.90;;;;;;5070109;28;20077;-78
2021/06/21 02:38:38;;;;;;;5.57;5.00;;;15.90;68.90;;;;;;5071212;28;20063;-77
2021/06/21 02:41:04;;;;;;;7.30;5.43;;;15.90;69.00;;;;;;5068875;28;20521;-77
2021/06/21 02:43:30;;;;;;;5.82;5.22;;;15.80;68.80;;;;;;5049608;28;20041;-76
2021/06/21 02:45:56;;;;;;;5.80;5.30;;;15.80;68.80;;;;;;5016999;28;20031;-77
2021/06/21 02:48:23;;;;;;;5.22;4.78;;;15.80;68.80;;;;;;5033382;28;20505;-76
2021/06/21 02:50:49;;;;;;;5.75;5.15;;;15.80;68.80;;;;;;5049651;28;20091;-77
2021/06/21 02:53:38;;;;;;;5.93;5.38;;;15.80;68.80;;;;;;5050209;28;20419;-77
2021/06/21 02:56:21;;;;;;;7.00;4.90;;;15.80;68.90;;;;;;5051202;28;20028;-76
2021/06/21 02:58:48;;;;;;;5.93;5.43;;;15.80;68.90;;;;;;5051044;28;20505;-77
2021/06/21 03:01:16;;;;;;;7.80;4.93;;;15.70;68.70;;;;;;5050533;28;20488;-75
2021/06/21 03:03:48;;;;;;;5.32;4.80;;;15.80;68.90;;;;;;5050724;28;20020;-76
2021/06/21 03:06:15;;;;;;;6.43;4.85;;;15.70;68.80;;;;;;5051110;28;20043;-79
2021/06/21 03:08:42;;;;;;;5.50;4.90;;;15.70;68.80;;;;;;5049825;28;20033;-78
2021/06/21 03:11:09;;;;;;;5.78;5.28;;;15.70;68.80;;;;;;5049623;28;20025;-78
2021/06/21 03:13:37;;;;;;;5.55;5.00;;;15.70;68.80;;;;;;5049931;28;20183;-78
2021/06/21 03:16:05;;;;;;;6.57;5.85;;;15.70;68.80;;;;;;5033252;28;20381;-79
2021/06/21 03:18:31;;;;;;;5.20;4.70;;;15.70;68.80;;;;;;5049204;28;20025;-77
2021/06/21 03:20:59;;;;;;;6.38;4.82;;;15.70;68.80;;;;;;5033098;28;20045;-79
2021/06/21 03:23:27;;;;;;;5.78;5.22;;;15.70;68.80;;;;;;5050752;28;20021;-79
2021/06/21 03:25:55;;;;;;;5.18;4.75;;;15.70;68.80;;;;;;5049190;28;20492;-78
2021/06/21 03:28:22;;;;;;;5.00;4.60;;;15.60;68.70;;;;;;5050788;28;20621;-78
2021/06/21 03:30:52;;;;;;;5.20;4.70;;;15.60;68.70;;;;;;5048330;28;20036;-79
2021/06/21 03:33:19;;;;;;;4.57;4.18;;;15.60;68.70;;;;;;5049004;28;20508;-77
2021/06/21 03:35:46;;;;;;;5.05;4.57;;;15.60;68.70;;;;;;5049734;28;20029;-78
2021/06/21 03:38:21;;;;;;;5.93;5.32;;;15.60;68.70;;;;;;5049212;28;20484;-78
2021/06/21 03:40:48;;;;;;;7.65;5.30;;;15.60;68.70;;;;;;5050533;28;20060;-78
2021/06/21 03:43:17;;;;;;;5.32;4.93;;;15.50;68.50;;;;;;5069043;28;20071;-79
2021/06/21 03:45:43;;;;;;;5.40;4.20;;;15.50;68.60;;;;;;5071404;28;20032;-80
2021/06/21 03:48:09;;;;;;;5.38;4.57;;;15.50;68.60;;;;;;5070519;28;20040;-77
2021/06/21 03:50:36;;;;;;;5.80;5.20;;;15.50;68.60;;;;;;5072757;28;20029;-76
2021/06/21 03:53:03;;;;;;;5.07;4.57;;;15.50;68.70;;;;;;5073288;28;20040;-76
2021/06/21 03:55:29;;;;;;;5.78;4.78;;;15.50;68.70;;;;;;5072722;28;20028;-79
2021/06/21 03:57:55;;;;;;;4.30;4.00;;;15.40;68.50;;;;;;5073947;28;20153;-79
2021/06/21 04:00:26;;;;;;;4.93;4.50;;;15.40;68.50;;;;;;5073220;28;20067;-77
2021/06/21 04:02:53;;;;;;;5.00;4.45;;;15.40;68.50;;;;;;5056476;28;20028;-79
2021/06/21 04:05:20;;;;;;;5.95;4.20;;;15.40;68.50;;;;;;5074408;28;20496;-78
2021/06/21 04:07:47;;;;;;;5.63;5.13;;;15.40;68.50;;;;;;5072942;28;20120;-81
2021/06/21 04:10:23;;;;;;;6.18;5.10;;;15.40;68.50;;;;;;5072965;28;20162;-79
2021/06/21 04:12:50;;;;;;;5.88;5.28;;;15.40;68.60;;;;;;5072779;28;20048;-77
2021/06/21 04:15:19;;;;;;;5.28;4.78;;;15.40;68.60;;;;;;5056009;28;20036;-79
2021/06/21 04:17:46;;;;;;;6.18;5.43;;;15.40;68.60;;;;;;5056185;28;20032;-82
2021/06/21 04:20:17;;;;;;;6.18;5.47;;;15.30;68.50;;;;;;5072854;28;20032;-78
2021/06/21 04:22:44;;;;;;;5.63;5.13;;;15.30;68.50;;;;;;5072209;28;20105;-78
2021/06/21 04:25:13;;;;;;;5.53;5.03;;;15.30;68.40;;;;;;5055804;28;20047;-77
2021/06/21 04:27:40;;;;;;;5.30;4.80;;;15.30;68.50;;;;;;5039453;28;20545;-78
2021/06/21 04:30:11;;;;;;;5.10;4.60;;;15.30;68.50;;;;;;5072615;28;20028;-76
2021/06/21 04:32:37;;;;;;;5.93;4.90;;;15.30;69.00;;;;;;5056114;28;20052;-78
2021/06/21 04:35:07;;;;;;;5.38;4.88;;;15.30;68.50;;;;;;5052186;28;20029;-77
2021/06/21 04:37:33;;;;;;;5.47;4.97;;;15.30;69.00;;;;;;5052066;28;20037;-78
2021/06/21 04:40:02;;;;;;;5.43;4.50;;;15.30;68.50;;;;;;5035274;28;20033;-77
2021/06/21 04:42:28;;;;;;;5.60;5.20;;;15.30;68.50;;;;;;5063669;28;20104;-77
2021/06/21 04:44:54;;;;;;;5.85;5.00;;;15.30;68.50;;;;;;5044551;28;20028;-77
2021/06/21 04:47:24;;;;;;;5.85;5.28;;;15.30;68.50;;;;;;5045099;28;20107;-77
2021/06/21 04:49:55;;;;;;;6.18;5.15;;;15.30;68.50;;;;;;5045319;28;20438;-78
2021/06/21 04:52:23;;;;;;;7.28;5.07;;;15.30;68.60;;;;;;5026934;28;20025;-78
2021/06/21 04:54:50;;;;;;;6.38;4.85;;;15.30;68.50;;;;;;5042964;28;20372;-78
2021/06/21 04:57:17;;;;;;;6.13;4.80;;;15.30;68.50;;;;;;5041119;28;20170;-79
2021/06/21 04:59:43;;;;;;;5.47;4.97;;;15.30;68.50;;;;;;5039432;28;20017;-78
2021/06/21 05:02:09;;;;;;;6.10;5.10;;;15.30;68.50;;;;;;5041932;28;20028;-77
2021/06/21 05:04:35;;;;;;;5.25;4.75;;;15.30;68.50;;;;;;5043119;28;20384;-77
2021/06/21 05:07:03;;;;;;;5.55;4.63;;;15.30;68.50;;;;;;5049867;28;20040;-78
2021/06/21 05:09:30;;;;;;;5.53;5.03;;;15.30;68.50;;;;;;5048271;28;20037;-77
2021/06/21 05:11:57;;;;;;;5.70;4.70;;;15.30;68.50;;;;;;5058067;28;20029;-76
2021/06/21 05:14:23;;;;;;;5.60;5.00;;;15.30;68.50;;;;;;5062457;28;20025;-79
2021/06/21 05:16:49;;;;;;;8.63;5.70;;;15.30;68.40;;;;;;5055445;28;20100;-80
2021/06/21 05:19:15;;;;;;;7.40;5.07;;;15.30;68.40;;;;;;5057310;28;20124;-78
2021/06/21 05:21:41;;;;;;;6.68;5.25;;;15.30;68.30;;;;;;5065457;28;20437;-78
2021/06/21 05:24:08;;;;;;;7.63;6.07;;;15.30;68.30;;;;;;5051045;28;20024;-78
2021/06/21 05:26:34;;;;;;;7.60;5.82;;;15.30;68.30;;;;;;5064534;28;20422;-79
2021/06/21 05:29:00;;;;;;;5.70;5.10;;;15.30;68.30;;;;;;5049943;28;20032;-77
2021/06/21 05:31:26;;;;;;;7.00;5.03;;;15.30;68.30;;;;;;5068155;28;20048;-77
2021/06/21 05:33:52;;;;;;;5.40;4.68;;;15.30;68.30;;;;;;5060514;28;20059;-77
2021/06/21 05:36:19;;;;;;;5.38;4.50;;;15.40;68.40;;;;;;5052330;28;20049;-77
2021/06/21 05:38:45;;;;;;;8.43;6.05;;;15.40;68.40;;;;;;5065385;28;20396;-77
2021/06/21 05:41:11;;;;;;;8.50;5.78;;;15.40;68.50;;;;;;5066781;28;20089;-77
2021/06/21 05:43:37;;;;;;;5.53;5.03;;;15.30;68.90;;;;;;5065163;28;20411;-76
2021/06/21 05:46:03;;;;;;;5.72;4.95;;;15.40;68.50;;;;;;5058238;28;20033;-77
2021/06/21 05:48:30;;;;;;;6.60;5.80;;;15.40;68.50;;;;;;5047033;28;20496;-74
2021/06/21 05:51:00;;;;;;;9.43;5.25;;;15.40;68.50;;;;;;5061945;28;20438;-73
2021/06/21 05:53:30;;;;;;;6.63;5.25;;;15.40;68.50;;;;;;5061213;28;20536;-75
2021/06/21 05:55:57;;;;;;;7.22;5.57;;;15.40;68.50;;;;;;5067473;28;20119;-75
2021/06/21 05:58:23;;;;;;;9.23;5.63;;;15.40;68.50;;;;;;5066774;28;20116;-74
2021/06/21 06:00:50;;;;;;;6.03;5.43;;;15.40;68.40;;;;;;5064536;28;20446;-74
2021/06/21 06:03:16;;;;;;;8.77;6.40;;;15.40;68.60;;;;;;5061608;28;20047;-74
2021/06/21 06:05:42;;;;;;;7.25;6.35;;;15.50;68.90;;;;;;5053500;28;20037;-75
2021/06/21 06:08:09;;;;;;;7.22;6.22;;;15.50;69.00;;;;;;5052364;28;20123;-75
2021/06/21 06:10:35;;;;;;;8.40;6.30;;;15.50;69.00;;;;;;5054702;28;20103;-74
2021/06/21 06:13:01;;;;;;;6.80;6.20;;;15.50;69.10;;;;;;5054716;28;20074;-75
2021/06/21 06:15:27;;;;;;;7.65;6.10;;;15.50;69.10;;;;;;5067185;28;20400;-75
2021/06/21 06:17:53;;;;;;;8.93;7.07;;;15.50;69.10;;;;;;5066446;28;20401;-74
2021/06/21 06:20:19;;;;;;;6.53;5.82;;;15.60;69.30;;;;;;5057717;28;20025;-75
2021/06/21 06:22:46;;;;;;;7.05;6.35;;;15.60;69.30;;;;;;5059907;28;20116;-74
2021/06/21 06:25:14;;;;;;;6.97;6.28;;;15.60;69.30;;;;;;5066538;28;20115;-73
2021/06/21 06:27:40;;;;;;;6.97;6.28;;;15.60;69.30;;;;;;5060825;28;20086;-74
2021/06/21 06:30:07;;;;;;;7.03;6.00;;;15.70;69.50;;;;;;5064006;28;20068;-72
2021/06/21 06:32:35;;;;;;;7.05;5.55;;;15.70;69.50;;;;;;5055543;28;20053;-73
2021/06/21 06:35:05;;;;;;;6.38;5.80;;;15.70;69.40;;;;;;5049528;28;20063;-73
2021/06/21 06:37:31;;;;;;;9.45;6.00;;;15.70;69.40;;;;;;5052381;28;20035;-74
2021/06/21 06:39:57;;;;;;;7.15;6.45;;;15.70;69.60;;;;;;5044734;28;20032;-73
2021/06/21 06:42:23;;;;;;;9.27;6.82;;;15.80;70.00;;;;;;5043571;28;20033;-73
2021/06/21 06:44:49;;;;;;;8.75;7.13;;;15.80;70.20;;;;;;5053741;28;20078;-73
2021/06/21 06:47:15;;;;;;;7.88;6.50;;;16.00;70.80;;;;;;5057948;28;20037;-75
2021/06/21 06:49:42;;;;;;;7.70;6.07;;;16.00;71.00;;;;;;5045968;28;20476;-73
2021/06/21 06:52:08;;;;;;;8.93;6.22;;;16.00;71.10;;;;;;5045344;28;20033;-74
2021/06/21 06:56:58;;;;;;;9.32;6.70;;;16.10;71.30;;;;;;5046550;28;20234;-73
2021/06/21 06:57:22;;;;;;;7.40;6.63;;;16.20;71.40;;;;;;5045604;28;20040;-75
2021/06/21 06:59:48;;;;;;;8.55;6.75;;;16.20;71.40;;;;;;5046032;28;20087;-74
2021/06/21 07:02:22;;;;;;;7.47;6.80;;;16.30;71.60;;;;;;5046256;28;20033;-73
2021/06/21 07:04:48;;;;;;;7.18;6.28;;;16.40;71.80;;;;;;5046282;28;20079;-73
2021/06/21 07:07:15;;;;;;;6.55;5.88;;;16.40;71.70;;;;;;5045718;28;20136;-75
2021/06/21 07:09:41;;;;;;;6.82;5.68;;;16.50;71.90;;;;;;5064625;28;20499;-73
2021/06/21 07:12:07;;;;;;;7.88;6.47;;;16.50;71.80;;;;;;5065729;28;20193;-73
2021/06/21 07:14:33;;;;;;;8.25;5.93;;;16.60;71.90;;;;;;5064843;28;20040;-73
2021/06/21 07:17:00;;;;;;;7.65;5.43;;;16.60;71.90;;;;;;5066372;28;20391;-73
2021/06/21 07:19:27;;;;;;;8.40;6.32;;;16.70;72.00;;;;;;5064844;28;20040;-74
2021/06/21 07:21:53;;;;;;;7.28;6.40;;;16.70;72.00;;;;;;5066004;28;20365;-74
2021/06/21 07:24:20;;;;;;;7.15;6.45;;;16.80;72.10;;;;;;5067662;28;20518;-73
2021/06/21 07:26:48;;;;;;;7.25;6.00;;;16.80;72.00;;;;;;5068261;28;20033;-73
2021/06/21 07:29:15;;;;;;;9.65;6.78;;;16.90;72.10;;;;;;5068455;28;20119;-73
2021/06/21 07:31:41;;;;;;;6.00;5.40;;;17.00;72.10;;;;;;5069915;28;20752;-74
2021/06/21 07:34:07;;;;;;;7.03;5.57;;;17.00;72.00;;;;;;5070054;28;20516;-73
2021/06/21 07:36:34;;;;;;;9.40;6.28;;;17.10;72.10;;;;;;5069279;28;20114;-74
2021/06/21 07:39:00;;;;;;;6.60;5.28;;;17.10;72.00;;;;;;5055291;28;20460;-75
2021/06/21 07:41:26;;;;;;;8.13;6.38;;;17.20;72.10;;;;;;5048766;28;20060;-74
2021/06/21 07:43:52;;;;;;;7.22;6.38;;;17.20;71.90;;;;;;5048648;28;20029;-73
2021/06/21 07:46:19;;;;;;;7.70;6.55;;;17.30;72.00;;;;;;5048518;28;20037;-74
2021/06/21 07:48:45;;;;;;;7.78;5.75;;;17.40;72.10;;;;;;5059978;28;20037;-73
2021/06/21 07:51:20;;;;;;;7.13;6.13;;;17.40;71.90;;;;;;5068900;28;20037;-74
2021/06/21 07:53:50;;;;;;;7.65;6.25;;;17.50;71.90;;;;;;5067966;28;20032;-74
2021/06/21 07:56:17;;;;;;;8.80;5.75;;;17.50;71.70;;;;;;5068414;28;20029;-75
2021/06/21 07:58:44;;;;;;;6.13;5.55;;;17.60;71.80;;;;;;5067974;28;20124;-75
2021/06/21 08:01:13;;;;;;;7.45;5.68;;;17.60;71.60;;;;;;5066843;28;20189;-74
2021/06/21 08:03:44;;;;;;;8.05;5.75;;;17.70;71.60;;;;;;5067673;28;20477;-73
2021/06/21 08:06:11;;;;;;;7.80;6.30;;;17.70;71.40;;;;;;5068015;28;20900;-73
2021/06/21 08:08:39;;;;;;;9.00;5.97;;;17.80;71.50;;;;;;5068254;28;20055;-74
2021/06/21 08:11:06;;;;;;;7.95;5.60;;;17.80;71.30;;;;;;5066545;28;20052;-74
2021/06/21 08:13:32;;;;;;;5.95;5.35;;;17.90;71.30;;;;;;5066486;28;20078;-74
2021/06/21 08:15:58;;;;;;;8.20;5.75;;;17.90;71.10;;;;;;5067503;28;20029;-73
2021/06/21 08:18:24;;;;;;;6.28;5.10;;;17.90;71.10;;;;;;5050454;28;20118;-77
2021/06/21 08:20:51;;;;;;;6.72;6.05;;;17.80;70.80;;;;;;5049361;28;20029;-73
2021/06/21 08:23:18;;;;;;;5.78;5.20;;;17.80;70.70;;;;;;5047138;28;20029;-73
2021/06/21 08:25:45;;;;;;;6.68;6.00;;;17.80;70.60;;;;;;5047620;28;20091;-76
2021/06/21 08:28:11;;;;;;;5.88;5.20;;;17.90;70.60;;;;;;5047399;28;20033;-74
2021/06/21 08:30:38;;;;;;;7.20;5.80;;;17.90;70.60;;;;;;5047766;28;20024;-73
2021/06/21 08:33:05;;;;;;;6.35;5.70;;;17.90;70.40;;;;;;5056264;28;20048;-74
2021/06/21 08:35:32;;;;;;;8.73;5.95;;;17.90;70.30;;;;;;5049988;28;20033;-73
2021/06/21 08:37:59;;;;;;;5.63;5.03;;;17.90;70.20;;;;;;5050756;28;20052;-73
2021/06/21 08:40:25;;;;;;;5.93;5.38;;;18.00;70.80;;;;;;5068860;28;20044;-73
2021/06/21 08:42:51;;;;;;;8.70;5.82;;;18.00;70.20;;;;;;5068368;28;20086;-73
2021/06/21 08:45:18;;;;;;;6.43;5.85;;;18.00;70.10;;;;;;5067175;28;20036;-75
2021/06/21 08:47:45;;;;;;;6.47;5.78;;;18.00;70.00;;;;;;5068331;28;20516;-74
2021/06/21 08:50:13;;;;;;;5.88;5.30;;;18.10;70.00;;;;;;5068479;28;20025;-73
2021/06/21 08:52:43;;;;;;;6.05;5.45;;;18.10;69.90;;;;;;5064136;28;20039;-73
2021/06/21 08:55:11;;;;;;;6.78;5.72;;;18.10;69.80;;;;;;5047559;28;20361;-73
2021/06/21 08:57:43;;;;;;;8.52;5.63;;;18.20;69.90;;;;;;5048035;28;20416;-73
2021/06/21 09:00:11;;;;;;;5.80;5.30;;;18.20;69.80;;;;;;5048656;28;20033;-73
2021/06/21 09:02:37;;;;;;;6.68;6.03;;;18.20;69.70;;;;;;5048455;28;20115;-73
2021/06/21 09:05:10;;;;;;;6.10;5.50;;;18.30;69.70;;;;;;5048894;28;20500;-72
2021/06/21 09:07:37;;;;;;;5.90;5.32;;;18.30;69.60;;;;;;5047256;28;20041;-74
2021/06/21 09:10:08;;;;;;;6.13;4.88;;;18.40;69.60;;;;;;5047033;28;20098;-72
2021/06/21 09:12:35;;;;;;;6.30;5.70;;;18.40;69.50;;;;;;5046306;28;20123;-73
2021/06/21 09:15:08;;;;;;;6.30;5.70;;;18.40;69.30;;;;;;5046607;28;20059;-73
2021/06/21 09:17:38;;;;;;;6.40;5.75;;;18.50;69.30;;;;;;5048183;28;20021;-73
2021/06/21 09:20:10;;;;;;;8.05;5.60;;;18.60;69.40;;;;;;5048387;28;20061;-73
2021/06/21 09:22:41;;;;;;;6.97;5.22;;;18.70;69.90;;;;;;5030628;28;20032;-74
2021/06/21 09:25:16;;;;;;;5.35;4.85;;;18.70;69.20;;;;;;5047942;28;20396;-73
2021/06/21 09:27:53;;;;;;;7.78;6.00;;;18.70;69.10;;;;;;5047445;28;20045;-73
2021/06/21 09:30:19;;;;;;;5.53;5.03;;;18.80;69.10;;;;;;5047661;28;20499;-74
2021/06/21 09:32:48;;;;;;;6.82;5.15;;;18.80;68.90;;;;;;5045858;28;20135;-73
2021/06/21 09:35:26;;;;;;;5.72;5.10;;;18.90;69.00;;;;;;5029781;28;20433;-73
2021/06/21 09:37:52;;;;;;;7.18;5.70;;;19.00;69.00;;;;;;5047920;28;20672;-74
2021/06/21 09:40:34;;;;;;;5.25;4.75;;;19.00;68.90;;;;;;5047336;28;20037;-73
2021/06/21 09:43:23;;;;;;;6.40;5.28;;;19.00;68.70;;;;;;5047701;28;20407;-73
2021/06/21 09:46:14;;;;;;;5.88;4.95;;;19.10;68.70;;;;;;5047511;28;20388;-72
2021/06/21 09:48:54;;;;;;;5.15;4.75;;;19.10;68.60;;;;;;5044914;28;20117;-73
2021/06/21 09:51:24;;;;;;;;;;;19.10;68.40;;;;;;5045471;28;20489;-73
2021/06/21 09:54:01;;;;;;;15.18;5.97;;;19.20;68.50;;;;;;5045702;28;20058;-74
2021/06/21 09:56:33;;;;;;;5.55;5.00;;;19.10;67.20;;;;;;5045386;28;20068;-74
2021/06/21 09:58:59;;;;;;;7.03;5.30;;;19.10;66.60;;;;;;5044511;28;20029;-73
2021/06/21 10:01:30;;;;;;;9.18;6.18;;;19.00;66.00;;;;;;5045529;28;20401;-73
2021/06/21 10:03:56;;;;;;;8.07;4.90;;;18.90;65.20;;;;;;5050990;28;20384;-72
2021/06/21 10:06:23;;;;;;;8.73;5.78;;;18.90;65.00;;;;;;5061382;28;20285;-73
2021/06/21 10:08:50;;;;;;;11.75;6.18;;;18.80;64.40;;;;;;5038160;28;20048;-73
2021/06/21 10:11:35;;;;;;;12.77;5.85;;;18.80;64.10;;;;;;5046708;28;20040;-73
2021/06/21 10:14:05;;;;;;;10.43;5.35;;;18.70;63.20;;;;;;5041483;28;20033;-72
2021/06/21 10:16:32;;;;;;;6.90;5.40;;;18.70;63.20;;;;;;5045890;28;20044;-72
2021/06/21 10:18:58;;;;;;;8.70;6.35;;;18.60;62.80;;;;;;5058549;28;20032;-72
2021/06/21 10:21:26;;;;;;;9.77;7.78;;;18.60;62.60;;;;;;5065071;28;20043;-72
2021/06/21 10:23:53;;;;;;;6.88;6.28;;;18.60;62.50;;;;;;5066392;28;20040;-73
2021/06/21 10:26:20;;;;;;;8.30;7.07;;;18.70;62.50;;;;;;5048233;28;20024;-73
2021/06/21 10:28:48;;;;;;;8.60;6.50;;;18.70;62.30;;;;;;5064350;28;20044;-73
2021/06/21 10:31:14;;;;;;;7.30;6.40;;;18.80;62.30;;;;;;5058156;28;20062;-73
2021/06/21 10:33:40;;;;;;;8.68;6.85;;;18.90;62.30;;;;;;5044933;28;20041;-73
2021/06/21 10:36:08;;;;;;;8.25;6.93;;;19.00;62.40;;;;;;5046856;28;20180;-72
2021/06/21 10:38:34;;;;;;;6.80;6.10;;;19.00;62.20;;;;;;5046914;28;20053;-73
2021/06/21 10:41:05;;;;;;;7.07;6.38;;;19.10;62.40;;;;;;5045250;28;20037;-73
2021/06/21 10:43:47;;;;;;;7.47;5.93;;;19.20;62.50;;;;;;5046606;28;20078;-73
2021/06/21 10:46:19;;;;;;;6.10;5.50;;;19.30;62.50;;;;;;5044227;28;20044;-72
2021/06/21 10:49:06;;;;;;;9.70;6.57;;;19.40;63.10;;;;;;5054725;28;20586;-75
2021/06/21 10:51:40;;;;;;;7.05;5.57;;;19.50;62.60;;;;;;5065144;28;20043;-73
2021/06/21 10:54:20;;;;;;;6.22;5.28;;;19.60;62.80;;;;;;5063653;28;20391;-73
2021/06/21 10:56:48;;;;;;;8.93;5.53;;;19.60;62.70;;;;;;5065545;28;20086;-73
2021/06/21 10:59:19;;;;;;;8.18;5.40;;;19.70;62.90;;;;;;5064831;28;20300;-73
2021/06/21 11:01:52;;;;;;;6.13;5.28;;;19.70;62.80;;;;;;5066389;28;20067;-73
2021/06/21 11:04:36;;;;;;;6.35;5.70;;;19.80;62.90;;;;;;5066032;28;20036;-74
2021/06/21 11:07:09;;;;;;;9.48;5.57;;;19.90;63.00;;;;;;5066088;28;20036;-73
2021/06/21 11:09:45;;;;;;;6.22;5.60;;;19.90;62.90;;;;;;5048507;28;20392;-73
2021/06/21 11:12:23;;;;;;;6.22;5.18;;;20.00;63.10;;;;;;5066433;28;20036;-73
2021/06/21 11:15:11;;;;;;;5.35;4.50;;;20.00;63.00;;;;;;5048155;28;20029;-72
2021/06/21 11:17:45;;;;;;;6.03;5.40;;;20.00;63.00;;;;;;5066054;28;20480;-72
2021/06/21 11:20:44;;;;;;;6.03;5.40;;;20.10;63.10;;;;;;5033172;28;20021;-73
2021/06/21 11:23:32;;;;;;;5.13;4.57;;;20.10;63.10;;;;;;5038148;28;20029;-72
2021/06/21 11:26:00;;;;;;;6.53;4.90;;;20.20;63.30;;;;;;5044382;28;20025;-72
2021/06/21 11:28:43;;;;;;;6.25;5.32;;;20.20;63.20;;;;;;5053240;28;20048;-73
2021/06/21 11:31:21;;;;;;;8.77;4.95;;;20.30;63.30;;;;;;5066000;28;20516;-73
2021/06/21 11:34:04;;;;;;;6.85;4.75;;;20.30;63.30;;;;;;5066027;28;20032;-72
2021/06/21 11:36:48;;;;;;;5.53;4.70;;;20.40;63.40;;;;;;5065424;28;20119;-73
2021/06/21 11:39:20;;;;;;;7.13;5.40;;;20.50;63.50;;;;;;5065025;28;20391;-74
2021/06/21 11:42:01;;;;;;;6.93;5.13;;;20.50;63.30;;;;;;5048086;28;20029;-74
2021/06/21 11:44:39;;;;;;;5.38;4.72;;;20.60;63.40;;;;;;5064062;28;20567;-74
2021/06/21 11:47:25;;;;;;;5.00;4.60;;;20.70;63.50;;;;;;5065776;28;20452;-73
2021/06/21 11:49:57;;;;;;;6.25;4.60;;;20.70;63.40;;;;;;5049414;28;20040;-75
2021/06/21 11:52:25;;;;;;;5.05;4.55;;;20.70;63.30;;;;;;5064003;28;20024;-73
2021/06/21 11:54:53;;;;;;;5.50;4.40;;;20.80;63.50;;;;;;5064534;28;20044;-74
2021/06/21 11:57:22;;;;;;;8.07;5.03;;;20.90;63.50;;;;;;5065000;28;20037;-73
2021/06/21 11:59:50;;;;;;;4.50;4.10;;;20.90;63.50;;;;;;5065328;28;20178;-74
2021/06/21 12:02:23;;;;;;;6.30;4.60;;;21.00;63.50;;;;;;5064394;28;20055;-73
2021/06/21 12:04:59;;;;;;;6.05;4.38;;;21.10;64.10;;;;;;5064473;28;20563;-73
2021/06/21 12:07:34;;;;;;;5.78;5.13;;;21.10;63.50;;;;;;5064596;28;20127;-73
2021/06/21 12:10:03;;;;;;;4.88;4.07;;;21.20;63.60;;;;;;5066408;28;20373;-74
2021/06/21 12:12:35;;;;;;;4.32;3.88;;;21.20;63.50;;;;;;5069199;28;20101;-73
2021/06/21 12:15:04;;;;;;;5.35;3.75;;;21.30;63.50;;;;;;5069576;28;20047;-73
2021/06/21 12:17:31;;;;;;;5.00;3.97;;;21.40;63.70;;;;;;5069107;28;20112;-73
2021/06/21 12:20:05;;;;;;;5.78;4.07;;;21.40;63.60;;;;;;5068758;28;20380;-75
2021/06/21 12:22:32;;;;;;;;;;;21.50;63.70;;;;;;5066568;28;20036;-74
2021/06/21 12:24:58;;;;;;;4.63;4.15;;;21.60;63.90;;;;;;5069422;28;19915;-75
2021/06/21 12:27:24;;;;;;;6.57;4.25;;;21.60;63.70;;;;;;5067300;28;20036;-73
2021/06/21 12:29:52;;;;;;;4.45;4.05;;;21.70;63.70;;;;;;5069428;28;20064;-73
2021/06/21 12:32:19;;;;;;;5.35;4.72;;;21.80;63.70;;;;;;5068686;28;20049;-72
2021/06/21 12:34:58;;;;;;;4.35;3.85;;;21.80;63.50;;;;;;5069039;28;20188;-72
2021/06/21 12:37:35;;;;;;;5.90;4.22;;;21.90;63.50;;;;;;5069211;28;20025;-72
2021/06/21 12:40:15;;;;;;;4.63;4.22;;;22.00;63.50;;;;;;5050642;28;20086;-73
2021/06/21 12:42:42;;;;;;;4.80;4.40;;;22.10;63.60;;;;;;5066661;28;20387;-74
2021/06/21 12:45:13;;;;;;;5.45;4.22;;;22.10;63.40;;;;;;5068731;28;20036;-73
2021/06/21 12:47:47;;;;;;;5.47;3.90;;;22.20;63.40;;;;;;5068088;28;20086;-76
2021/06/21 12:50:15;;;;;;;4.53;3.75;;;22.30;63.40;;;;;;5061419;28;20102;-74
2021/06/21 12:52:43;;;;;;;5.13;3.80;;;22.40;63.40;;;;;;5055002;28;20115;-74
2021/06/21 12:55:10;;;;;;;4.43;4.03;;;22.50;63.40;;;;;;5068331;28;20039;-74
2021/06/21 12:57:58;;;;;;;4.25;3.85;;;22.60;63.40;;;;;;5066998;28;20412;-73
2021/06/21 13:00:44;;;;;;;6.00;3.80;;;22.70;63.40;;;;;;5055583;28;20060;-75